createdAt,value
2023-10-20T00:00:49.610Z,97775.47
2023-10-20T00:03:18.469Z,97776.34
2023-10-20T00:05:48.989Z,97775.69
2023-10-20T00:08:19.383Z,97777.41
2023-10-20T00:10:47.842Z,97783.53
2023-10-20T00:13:16.778Z,97791.13
2023-10-20T00:15:46.457Z,97783.06
2023-10-20T00:18:16.819Z,97774.53
2023-10-20T00:20:46.048Z,97780.09
2023-10-20T00:23:15.836Z,97777.88
2023-10-20T00:25:44.491Z,97768.22
2023-10-20T00:28:14.703Z,97775.16
2023-10-20T00:30:46.661Z,97745.72
2023-10-20T00:33:17.016Z,97744.78
2023-10-20T00:35:45.469Z,97736.28
2023-10-20T00:38:13.786Z,97741.06
2023-10-20T00:40:48.936Z,97753.56
2023-10-20T00:43:17.304Z,97757.03
2023-10-20T00:45:47.114Z,97745.16
2023-10-20T00:48:17.057Z,97741.00
2023-10-20T00:50:47.052Z,97738.22
2023-10-20T00:53:15.993Z,97731.16
2023-10-20T00:55:44.876Z,97731.81
2023-10-20T00:58:13.172Z,97721.41
2023-10-20T01:00:42.171Z,97716.56
2023-10-20T01:03:12.403Z,97705.94
2023-10-20T01:05:42.436Z,97690.66
2023-10-20T01:08:11.343Z,97702.56
2023-10-20T01:10:39.644Z,97704.00
2023-10-20T01:13:09.327Z,97698.41
2023-10-20T01:15:38.031Z,97687.31
2023-10-20T01:18:09.921Z,97684.53
2023-10-20T01:20:38.281Z,97688.81
2023-10-20T01:23:07.768Z,97672.78
2023-10-20T01:25:37.360Z,97665.78
2023-10-20T01:28:05.744Z,97660.28
2023-10-20T01:30:34.399Z,97649.78
2023-10-20T01:33:02.652Z,97631.75
2023-10-20T01:35:31.050Z,97638.69
2023-10-20T01:37:59.712Z,97626.84
2023-10-20T01:40:30.009Z,97613.59
2023-10-20T01:43:00.553Z,97621.97
2023-10-20T01:45:29.410Z,97622.59
2023-10-20T01:47:57.667Z,97607.88
2023-10-20T01:50:26.132Z,97598.81
2023-10-20T01:52:55.583Z,97601.53
2023-10-20T01:55:24.565Z,97604.28
2023-10-20T01:57:53.396Z,97578.34
2023-10-20T02:00:23.632Z,97569.94
2023-10-20T02:02:51.969Z,97562.94
2023-10-20T02:05:20.219Z,97557.97
2023-10-20T02:07:49.555Z,97551.69
2023-10-20T02:10:17.810Z,97542.56
2023-10-20T02:12:46.079Z,97543.19
2023-10-20T02:15:14.964Z,97550.19
2023-10-20T02:17:45.297Z,97539.78
2023-10-20T02:20:16.787Z,97526.47
2023-10-20T02:22:45.175Z,97533.47
2023-10-20T02:25:13.588Z,97527.25
2023-10-20T02:27:43.975Z,97507.75
2023-10-20T02:30:13.896Z,97487.53
2023-10-20T02:32:42.199Z,97483.41
2023-10-20T02:35:12.411Z,97480.03
2023-10-20T02:37:40.808Z,97484.94
2023-10-20T02:40:11.868Z,97483.56
2023-10-20T02:42:40.182Z,97491.28
2023-10-20T02:45:12.412Z,97488.56
2023-10-20T02:47:40.931Z,97484.41
2023-10-20T02:50:10.002Z,97483.63
2023-10-20T02:52:40.961Z,97477.28
2023-10-20T02:55:09.400Z,97471.72
2023-10-20T02:57:37.903Z,97462.59
2023-10-20T03:00:11.702Z,97457.03
2023-10-20T03:02:40.012Z,97452.81
2023-10-20T03:05:09.093Z,97443.78
2023-10-20T03:07:39.102Z,97429.97
2023-10-20T03:10:09.945Z,97433.31
2023-10-20T03:12:38.338Z,97415.16
2023-10-20T03:15:08.305Z,97424.88
2023-10-20T03:17:36.820Z,97412.38
2023-10-20T03:20:09.581Z,97405.38
2023-10-20T03:22:38.834Z,97406.75
2023-10-20T03:25:10.291Z,97413.13
2023-10-20T03:27:39.609Z,97415.31
2023-10-20T03:30:08.281Z,97413.09
2023-10-20T03:32:36.614Z,97400.44
2023-10-20T03:35:05.234Z,97376.75
2023-10-20T03:37:33.592Z,97368.31
2023-10-20T03:40:01.930Z,97369.53
2023-10-20T03:42:31.961Z,97362.59
2023-10-20T03:45:01.517Z,97351.47
2023-10-20T03:47:35.784Z,97347.94
2023-10-20T03:50:05.353Z,97343.81
2023-10-20T03:52:33.715Z,97327.69
2023-10-20T03:55:02.782Z,97328.34
2023-10-20T03:57:32.536Z,97311.56
2023-10-20T04:00:16.050Z,97312.97
2023-10-20T04:02:44.482Z,97319.22
2023-10-20T04:05:16.256Z,97318.56
2023-10-20T04:07:44.727Z,97307.41
2023-10-20T04:10:13.790Z,97305.34
2023-10-20T04:12:45.627Z,97308.72
2023-10-20T04:15:17.203Z,97296.88
2023-10-20T04:17:46.084Z,97294.75
2023-10-20T04:20:20.581Z,97280.16
2023-10-20T04:22:52.325Z,97263.41
2023-10-20T04:25:21.317Z,97251.44
2023-10-20T04:27:52.441Z,97245.22
2023-10-20T04:30:38.806Z,97241.75
2023-10-20T04:33:25.528Z,97236.91
2023-10-20T04:36:13.805Z,97220.78
2023-10-20T04:38:59.652Z,97218.00
2023-10-20T04:41:45.783Z,97206.22
2023-10-20T04:44:41.425Z,97201.41
2023-10-20T04:47:23.710Z,97198.63
2023-10-20T04:50:15.189Z,97179.91
2023-10-20T04:53:09.728Z,97155.66
2023-10-20T04:55:51.880Z,97140.34
2023-10-20T04:58:25.275Z,97140.38
2023-10-20T05:01:04.876Z,97136.94
2023-10-20T05:03:46.228Z,97127.97
2023-10-20T05:06:24.384Z,97106.31
2023-10-20T05:08:52.840Z,97107.81
2023-10-20T05:11:21.763Z,97111.28
2023-10-20T05:13:50.149Z,97114.13
2023-10-20T05:16:19.840Z,97102.94
2023-10-20T05:18:47.983Z,97093.88
2023-10-20T05:21:16.136Z,97082.75
2023-10-20T05:23:45.255Z,97078.66
2023-10-20T05:26:13.509Z,97073.81
2023-10-20T05:28:41.766Z,97070.31
2023-10-20T05:31:10.131Z,97050.25
2023-10-20T05:33:39.886Z,97047.56
2023-10-20T05:36:08.609Z,97037.88
2023-10-20T05:38:36.903Z,97040.88
2023-10-20T05:41:05.205Z,97039.56
2023-10-20T05:43:33.671Z,97016.63
2023-10-20T05:46:01.866Z,97018.03
2023-10-20T05:48:30.336Z,97007.09
2023-10-20T05:51:00.281Z,96994.03
2023-10-20T05:53:28.740Z,96995.44
2023-10-20T05:55:58.580Z,96979.50
2023-10-20T05:58:26.664Z,96967.63
2023-10-20T06:03:28.060Z,96948.06
2023-10-20T06:06:01.708Z,96937.75
2023-10-20T06:08:30.959Z,96922.44
2023-10-20T06:11:04.109Z,96925.91
2023-10-20T06:13:34.106Z,96918.28
2023-10-20T06:16:09.832Z,96910.56
2023-10-20T06:18:38.744Z,96902.13
2023-10-20T06:21:09.235Z,96876.88
2023-10-20T06:23:37.748Z,96873.38
2023-10-20T06:26:05.954Z,96868.53
2023-10-20T06:28:34.276Z,96861.50
2023-10-20T06:31:16.442Z,96867.03
2023-10-20T06:33:45.701Z,96865.72
2023-10-20T06:36:23.522Z,96847.56
2023-10-20T06:38:51.657Z,96851.09
2023-10-20T06:41:19.846Z,96845.91
2023-10-20T06:43:48.671Z,96829.97
2023-10-20T06:46:19.792Z,96811.94
2023-10-20T06:48:49.127Z,96812.09
2023-10-20T06:51:18.661Z,96809.50
2023-10-20T06:53:47.489Z,96798.31
2023-10-20T06:56:20.987Z,96794.28
2023-10-20T06:58:51.973Z,96786.63
2023-10-20T07:01:20.619Z,96783.75
2023-10-20T07:03:48.917Z,96777.59
2023-10-20T07:06:19.003Z,96779.06
2023-10-20T07:08:47.502Z,96776.38
2023-10-20T07:11:18.703Z,96779.09
2023-10-20T07:13:46.961Z,96775.03
2023-10-20T07:16:15.358Z,96765.31
2023-10-20T07:18:43.812Z,96759.78
2023-10-20T07:21:12.254Z,96759.06
2023-10-20T07:23:43.125Z,96749.91
2023-10-20T07:26:11.941Z,96756.91
2023-10-20T07:28:41.055Z,96759.69
2023-10-20T07:31:13.446Z,96748.72
2023-10-20T07:33:41.793Z,96757.94
2023-10-20T07:36:10.341Z,96755.84
2023-10-20T07:38:44.069Z,96749.59
2023-10-20T07:41:14.661Z,96747.59
2023-10-20T07:43:43.472Z,96747.56
2023-10-20T07:46:15.781Z,96752.44
2023-10-20T07:48:46.960Z,96739.84
2023-10-20T07:51:15.297Z,96740.56
2023-10-20T07:53:44.870Z,96758.03
2023-10-20T07:56:13.371Z,96747.53
2023-10-20T07:58:41.605Z,96748.25
2023-10-20T08:01:10.113Z,96753.09
2023-10-20T08:03:38.411Z,96760.09
2023-10-20T08:06:07.233Z,96781.06
2023-10-20T08:08:35.734Z,96777.81
2023-10-20T08:11:07.923Z,96796.69
2023-10-20T08:13:36.291Z,96801.66
2023-10-20T08:16:08.868Z,96816.34
2023-10-20T08:18:37.458Z,96812.84
2023-10-20T08:21:07.163Z,96828.94
2023-10-20T08:23:35.704Z,96823.41
2023-10-20T08:26:04.291Z,96829.06
2023-10-20T08:28:34.069Z,96826.97
2023-10-20T08:31:06.936Z,96827.75
2023-10-20T08:33:35.998Z,96818.66
2023-10-20T08:36:13.492Z,96831.25
2023-10-20T08:38:42.762Z,96836.78
2023-10-20T08:41:13.565Z,96850.06
2023-10-20T08:43:44.265Z,96857.66
2023-10-20T08:46:14.924Z,96851.34
2023-10-20T08:48:43.817Z,96853.53
2023-10-20T08:51:13.060Z,96859.16
2023-10-20T08:53:42.998Z,96860.00
2023-10-20T08:56:13.158Z,96866.47
2023-10-20T08:58:41.357Z,96872.19
2023-10-20T09:01:11.321Z,96877.88
2023-10-20T09:03:40.383Z,96878.66
2023-10-20T09:06:09.624Z,96881.47
2023-10-20T09:11:09.118Z,96890.56
2023-10-20T09:13:38.932Z,96893.28
2023-10-20T09:16:09.993Z,96889.78
2023-10-20T09:18:47.017Z,96900.31
2023-10-20T09:21:15.774Z,96910.81
2023-10-20T09:23:55.774Z,96917.78
2023-10-20T09:26:24.694Z,96940.28
2023-10-20T09:28:56.345Z,96959.28
2023-10-20T09:31:26.331Z,96966.94
2023-10-20T09:33:56.029Z,96978.81
2023-10-20T09:36:25.377Z,97000.41
2023-10-20T09:38:54.485Z,97015.63
2023-10-20T09:41:23.796Z,97018.19
2023-10-20T09:43:55.409Z,97009.78
2023-10-20T09:46:42.957Z,97014.88
2023-10-20T09:49:21.664Z,97030.41
2023-10-20T09:51:53.681Z,97023.28
2023-10-20T09:54:28.634Z,97017.56
2023-10-20T09:57:00.808Z,97020.25
2023-10-20T09:59:29.711Z,97015.06
2023-10-20T10:01:58.694Z,97005.34
2023-10-20T10:04:30.179Z,97020.03
2023-10-20T10:07:04.847Z,97017.97
2023-10-20T10:09:40.156Z,97022.34
2023-10-20T10:12:10.402Z,97034.84
2023-10-20T10:14:38.666Z,97026.53
2023-10-20T10:17:10.565Z,97024.41
2023-10-20T10:19:50.055Z,97021.06
2023-10-20T10:22:18.576Z,97016.31
2023-10-20T10:24:51.372Z,97019.19
2023-10-20T10:27:23.737Z,97018.47
2023-10-20T10:29:54.751Z,97019.97
2023-10-20T10:32:24.066Z,97015.78
2023-10-20T10:34:57.551Z,97017.78
2023-10-20T10:37:34.123Z,97015.03
2023-10-20T10:40:20.610Z,97019.38
2023-10-20T10:42:49.583Z,97020.78
2023-10-20T10:45:18.220Z,97027.31
2023-10-20T10:47:46.926Z,97017.31
2023-10-20T10:50:18.211Z,97029.75
2023-10-20T10:52:46.632Z,97034.16
2023-10-20T10:55:15.692Z,97027.19
2023-10-20T10:57:45.078Z,97025.88
2023-10-20T11:00:20.762Z,97030.13
2023-10-20T11:02:49.567Z,97027.22
2023-10-20T11:05:19.996Z,97011.75
2023-10-20T11:07:58.240Z,97018.84
2023-10-20T11:10:29.372Z,97006.34
2023-10-20T11:12:59.167Z,97003.59
2023-10-20T11:15:29.652Z,97014.84
2023-10-20T11:18:00.075Z,97006.47
2023-10-20T11:20:31.358Z,97009.97
2023-10-20T11:23:02.228Z,97002.22
2023-10-20T11:25:30.908Z,96995.22
2023-10-20T11:27:59.270Z,96993.13
2023-10-20T11:30:28.322Z,97000.91
2023-10-20T11:32:57.026Z,97004.38
2023-10-20T11:35:26.402Z,97005.09
2023-10-20T11:37:56.663Z,97006.41
2023-10-20T11:40:25.314Z,97013.50
2023-10-20T11:42:53.856Z,97015.69
2023-10-20T11:45:22.712Z,97026.88
2023-10-20T11:47:51.226Z,97012.84
2023-10-20T11:50:20.874Z,97020.56
2023-10-20T11:52:51.494Z,97017.09
2023-10-20T11:55:20.997Z,97030.41
2023-10-20T11:57:49.101Z,97026.09
2023-10-20T12:00:18.727Z,97041.56
2023-10-20T12:02:47.540Z,97048.28
2023-10-20T12:05:16.053Z,97043.09
2023-10-20T12:07:44.730Z,97050.09
2023-10-20T12:10:13.690Z,97043.81
2023-10-20T12:12:43.336Z,97046.75
2023-10-20T12:15:13.006Z,97061.00
2023-10-20T12:17:45.004Z,97056.25
2023-10-20T12:20:14.428Z,97066.00
2023-10-20T12:22:42.696Z,97070.03
2023-10-20T12:25:11.308Z,97091.59
2023-10-20T12:27:40.522Z,97094.31
2023-10-20T12:30:12.325Z,97097.69
2023-10-20T12:32:43.756Z,97097.06
2023-10-20T12:35:12.670Z,97090.78
2023-10-20T12:37:40.770Z,97090.06
2023-10-20T12:40:09.968Z,97089.03
2023-10-20T12:42:38.485Z,97082.69
2023-10-20T12:45:10.028Z,97089.00
2023-10-20T12:47:40.161Z,97091.88
2023-10-20T12:50:09.435Z,97084.81
2023-10-20T12:52:37.762Z,97075.63
2023-10-20T12:55:07.049Z,97081.16
2023-10-20T12:57:35.325Z,97088.84
2023-10-20T13:00:06.094Z,97094.47
2023-10-20T13:02:35.271Z,97092.38
2023-10-20T13:05:05.591Z,97107.03
2023-10-20T13:07:34.123Z,97122.50
2023-10-20T13:10:05.017Z,97122.63
2023-10-20T13:12:34.422Z,97134.59
2023-10-20T13:15:02.612Z,97130.47
2023-10-20T13:17:31.976Z,97127.69
2023-10-20T13:20:00.309Z,97127.88
2023-10-20T13:22:29.799Z,97141.28
2023-10-20T13:24:58.116Z,97136.25
2023-10-20T13:27:27.135Z,97149.59
2023-10-20T13:29:55.735Z,97150.22
2023-10-20T13:32:24.684Z,97145.31
2023-10-20T13:34:52.935Z,97150.84
2023-10-20T13:37:21.042Z,97143.06
2023-10-20T13:39:50.866Z,97148.66
2023-10-20T13:42:19.302Z,97150.72
2023-10-20T13:44:47.340Z,97147.34
2023-10-20T13:47:15.856Z,97142.50
2023-10-20T13:49:44.130Z,97139.78
2023-10-20T13:52:13.041Z,97148.25
2023-10-20T13:54:41.471Z,97139.88
2023-10-20T13:57:12.428Z,97144.09
2023-10-20T13:59:40.595Z,97144.09
2023-10-20T14:02:09.545Z,97152.50
2023-10-20T14:04:37.989Z,97161.75
2023-10-20T14:07:06.297Z,97166.63
2023-10-20T14:09:35.018Z,97175.00
2023-10-20T14:12:03.693Z,97193.16
2023-10-20T14:14:33.602Z,97207.00
2023-10-20T14:17:07.212Z,97223.16
2023-10-20T14:19:35.988Z,97218.28
2023-10-20T14:22:06.835Z,97223.75
2023-10-20T14:24:35.201Z,97232.88
2023-10-20T14:27:03.465Z,97247.47
2023-10-20T14:29:34.649Z,97266.34
2023-10-20T14:32:03.661Z,97277.53
2023-10-20T14:34:33.168Z,97294.38
2023-10-20T14:37:01.579Z,97287.97
2023-10-20T14:39:29.992Z,97293.72
2023-10-20T14:41:58.551Z,97306.13
2023-10-20T14:44:28.277Z,97308.72
2023-10-20T14:47:00.641Z,97315.59
2023-10-20T14:49:30.836Z,97299.59
2023-10-20T14:52:01.481Z,97299.41
2023-10-20T14:54:29.835Z,97299.97
2023-10-20T14:56:58.970Z,97306.31
2023-10-20T14:59:27.249Z,97325.19
2023-10-20T15:01:55.797Z,97330.91
2023-10-20T15:04:30.348Z,97323.69
2023-10-20T15:06:59.641Z,97331.50
2023-10-20T15:09:28.329Z,97327.94
2023-10-20T15:11:57.027Z,97349.63
2023-10-20T15:14:25.761Z,97336.16
2023-10-20T15:16:57.102Z,97341.78
2023-10-20T15:19:30.528Z,97350.22
2023-10-20T15:21:59.105Z,97350.75
2023-10-20T15:24:27.857Z,97335.34
2023-10-20T15:26:58.029Z,97355.50
2023-10-20T15:29:26.389Z,97367.44
2023-10-20T15:31:55.644Z,97386.16
2023-10-20T15:34:25.088Z,97381.88
2023-10-20T15:36:55.173Z,97397.13
2023-10-20T15:39:32.580Z,97403.97
2023-10-20T15:42:12.626Z,97403.94
2023-10-20T15:44:40.932Z,97402.44
2023-10-20T15:47:09.525Z,97412.28
2023-10-20T15:49:39.657Z,97416.41
2023-10-20T15:52:09.472Z,97416.97
2023-10-20T15:54:38.568Z,97422.50
2023-10-20T15:57:07.369Z,97414.66
2023-10-20T15:59:36.479Z,97416.16
2023-10-20T16:02:05.747Z,97414.66
2023-10-20T16:04:34.175Z,97415.94
2023-10-20T16:07:02.386Z,97424.28
2023-10-20T16:09:31.925Z,97431.88
2023-10-20T16:12:00.177Z,97441.41
2023-10-20T16:14:28.505Z,97440.59
2023-10-20T16:16:56.838Z,97434.81
2023-10-20T16:19:25.212Z,97447.44
2023-10-20T16:21:53.616Z,97453.63
2023-10-20T16:24:22.293Z,97451.31
2023-10-20T16:26:52.229Z,97453.25
2023-10-20T16:29:20.493Z,97453.16
2023-10-20T16:31:50.197Z,97461.22
2023-10-20T16:34:19.813Z,97447.03
2023-10-20T16:36:48.033Z,97453.13
2023-10-20T16:39:19.517Z,97457.81
2023-10-20T16:41:48.731Z,97451.09
2023-10-20T16:44:18.961Z,97462.22
2023-10-20T16:46:47.273Z,97462.19
2023-10-20T16:49:15.921Z,97455.78
2023-10-20T16:51:48.729Z,97462.84
2023-10-20T16:54:18.378Z,97479.41
2023-10-20T16:56:47.718Z,97491.41
2023-10-20T16:59:15.885Z,97494.88
2023-10-20T17:01:49.733Z,97496.97
2023-10-20T17:04:18.302Z,97482.47
2023-10-20T17:06:47.011Z,97487.31
2023-10-20T17:09:15.938Z,97488.56
2023-10-20T17:11:44.242Z,97487.16
2023-10-20T17:14:12.264Z,97497.59
2023-10-20T17:16:43.989Z,97495.38
2023-10-20T17:19:13.957Z,97493.81
2023-10-20T17:21:42.478Z,97490.19
2023-10-20T17:24:12.074Z,97494.34
2023-10-20T17:26:40.964Z,97499.16
2023-10-20T17:29:09.747Z,97503.34
2023-10-20T17:31:39.881Z,97502.44
2023-10-20T17:34:08.571Z,97511.50
2023-10-20T17:36:38.561Z,97506.50
2023-10-20T17:39:11.496Z,97512.63
2023-10-20T17:41:40.203Z,97515.25
2023-10-20T17:44:08.476Z,97519.34
2023-10-20T17:46:37.240Z,97520.03
2023-10-20T17:49:06.584Z,97528.38
2023-10-20T17:51:36.318Z,97530.44
2023-10-20T17:54:06.440Z,97534.75
2023-10-20T17:56:34.664Z,97534.06
2023-10-20T17:59:03.986Z,97533.16
2023-10-20T18:01:33.712Z,97533.13
2023-10-20T18:04:03.330Z,97528.06
2023-10-20T18:06:34.864Z,97523.13
2023-10-20T18:09:06.022Z,97524.50
2023-10-20T18:11:36.347Z,97520.13
2023-10-20T18:14:06.121Z,97519.88
2023-10-20T18:16:35.749Z,97520.53
2023-10-20T18:19:04.098Z,97521.19
2023-10-20T18:21:37.203Z,97521.03
2023-10-20T18:24:08.944Z,97526.63
2023-10-20T18:26:38.682Z,97525.09
2023-10-20T18:29:07.421Z,97532.00
2023-10-20T18:31:36.009Z,97534.91
2023-10-20T18:34:04.594Z,97534.13
2023-10-20T18:36:34.906Z,97548.94
2023-10-20T18:39:03.184Z,97543.34
2023-10-20T18:41:32.856Z,97541.31
2023-10-20T18:44:05.340Z,97551.84
2023-10-20T18:46:33.869Z,97547.03
2023-10-20T18:49:02.117Z,97551.78
2023-10-20T18:51:30.571Z,97557.19
2023-10-20T18:53:59.274Z,97555.75
2023-10-20T18:56:27.554Z,97558.31
2023-10-20T18:58:56.408Z,97558.31
2023-10-20T19:01:29.699Z,97552.50
2023-10-20T19:03:59.269Z,97550.19
2023-10-20T19:06:27.702Z,97563.22
2023-10-20T19:08:55.934Z,97567.19
2023-10-20T19:11:24.646Z,97570.59
2023-10-20T19:13:54.254Z,97570.34
2023-10-20T19:16:22.883Z,97568.53
2023-10-20T19:18:53.044Z,97565.69
2023-10-20T19:21:21.625Z,97565.44
2023-10-20T19:23:49.867Z,97575.72
2023-10-20T19:26:18.104Z,97574.28
2023-10-20T19:28:46.572Z,97571.44
2023-10-20T19:31:15.450Z,97579.66
2023-10-20T19:33:44.285Z,97573.94
2023-10-20T19:36:13.928Z,97569.75
2023-10-20T19:38:43.261Z,97574.47
2023-10-20T19:41:13.309Z,97576.47
2023-10-20T19:43:42.192Z,97567.97
2023-10-20T19:46:10.584Z,97576.22
2023-10-20T19:48:39.684Z,97573.34
2023-10-20T19:51:07.941Z,97569.66
2023-10-20T19:53:37.884Z,97568.59
2023-10-20T19:56:06.860Z,97572.53
2023-10-20T19:58:34.917Z,97571.03
2023-10-20T20:01:04.357Z,97577.22
2023-10-20T20:03:32.704Z,97582.78
2023-10-20T20:06:09.297Z,97578.66
2023-10-20T20:08:38.881Z,97582.88
2023-10-20T20:11:07.608Z,97590.69
2023-10-20T20:13:37.535Z,97580.75
2023-10-20T20:16:06.517Z,97581.00
2023-10-20T20:18:37.897Z,97578.44
2023-10-20T20:21:06.212Z,97580.50
2023-10-20T20:23:34.613Z,97587.06
2023-10-20T20:26:05.171Z,97579.84
2023-10-20T20:28:34.126Z,97583.47
2023-10-20T20:31:03.360Z,97581.03
2023-10-20T20:33:32.108Z,97590.94
2023-10-20T20:36:02.186Z,97589.63
2023-10-20T20:38:30.426Z,97592.53
2023-10-20T20:40:58.869Z,97593.09
2023-10-20T20:43:28.578Z,97602.22
2023-10-20T20:45:57.526Z,97604.94
2023-10-20T20:48:25.935Z,97608.50
2023-10-20T20:50:54.677Z,97604.94
2023-10-20T20:53:22.938Z,97610.59
2023-10-20T20:55:51.380Z,97606.28
2023-10-20T20:58:19.515Z,97610.63
2023-10-20T21:00:49.792Z,97607.88
2023-10-20T21:03:18.744Z,97609.13
2023-10-20T21:05:48.151Z,97609.00
2023-10-20T21:08:16.453Z,97611.63
2023-10-20T21:10:44.691Z,97625.44
2023-10-20T21:13:12.928Z,97615.78
2023-10-20T21:15:41.220Z,97613.56
2023-10-20T21:18:10.662Z,97622.47
2023-10-20T21:20:38.934Z,97634.19
2023-10-20T21:23:07.168Z,97618.91
2023-10-20T21:25:37.638Z,97622.47
2023-10-20T21:28:07.508Z,97623.97
2023-10-20T21:30:37.814Z,97625.41
2023-10-20T21:33:06.021Z,97628.22
2023-10-20T21:35:40.431Z,97631.06
2023-10-20T21:38:10.080Z,97632.69
2023-10-20T21:40:47.284Z,97633.47
2023-10-20T21:43:15.909Z,97633.59
2023-10-20T21:45:56.200Z,97641.94
2023-10-20T21:48:24.921Z,97643.44
2023-10-20T21:50:58.091Z,97645.75
2023-10-20T21:53:26.648Z,97638.84
2023-10-20T21:56:03.944Z,97641.66
2023-10-20T21:58:32.614Z,97641.72
2023-10-20T22:01:01.462Z,97639.09
2023-10-20T22:03:30.194Z,97640.47
2023-10-20T22:06:00.010Z,97632.16
2023-10-20T22:08:28.926Z,97630.00
2023-10-20T22:10:57.028Z,97633.53
2023-10-20T22:13:25.520Z,97620.41
2023-10-20T22:15:53.734Z,97620.66
2023-10-20T22:18:21.911Z,97621.19
2023-10-20T22:20:50.234Z,97616.25
2023-10-20T22:23:20.275Z,97619.63
2023-10-20T22:25:49.566Z,97612.50
2023-10-20T22:28:17.550Z,97613.81
2023-10-20T22:30:45.583Z,97607.53
2023-10-20T22:33:13.820Z,97613.13
2023-10-20T22:35:42.133Z,97611.69
2023-10-20T22:38:10.356Z,97615.19
2023-10-20T22:40:40.075Z,97611.94
2023-10-20T22:43:08.546Z,97615.41
2023-10-20T22:45:40.180Z,97610.47
2023-10-20T22:48:08.551Z,97603.28
2023-10-20T22:50:36.751Z,97599.88
2023-10-20T22:53:06.484Z,97598.88
2023-10-20T22:55:34.532Z,97593.81
2023-10-20T22:58:04.423Z,97599.94
2023-10-20T23:00:33.214Z,97592.00
2023-10-20T23:03:01.914Z,97596.50
2023-10-20T23:05:30.883Z,97598.97
2023-10-20T23:08:00.312Z,97607.00
2023-10-20T23:10:29.672Z,97603.56
2023-10-20T23:12:57.735Z,97612.63
2023-10-20T23:15:29.607Z,97618.28
2023-10-20T23:17:58.131Z,97621.78
2023-10-20T23:20:26.580Z,97615.25
2023-10-20T23:22:54.673Z,97620.59
2023-10-20T23:25:23.127Z,97620.16
2023-10-20T23:27:53.333Z,97610.44
2023-10-20T23:30:21.527Z,97634.00
2023-10-20T23:32:51.930Z,97636.44
2023-10-20T23:35:21.014Z,97623.56
2023-10-20T23:37:50.772Z,97612.16
2023-10-20T23:40:18.908Z,97625.72
2023-10-20T23:42:47.119Z,97620.13
2023-10-20T23:45:15.347Z,97633.28
2023-10-20T23:47:44.148Z,97626.97
2023-10-20T23:50:13.784Z,97629.34
2023-10-20T23:52:42.164Z,97621.47
2023-10-20T23:55:10.838Z,97627.09
2023-10-20T23:57:39.339Z,97639.22
